sensor_id;sensor_type;location;lat;lon;timestamp;pressure;altitude;pressure_sealevel;temperature;humidity
41312;BME280;27061;41.648;24.568;2023-03-14T00:01:15;85857.41;;;2.53;50.80
41312;BME280;27061;41.648;24.568;2023-03-14T00:03:43;85860.97;;;2.66;51.72
41312;BME280;27061;41.648;24.568;2023-03-14T00:06:11;85839.41;;;2.38;52.34
41312;BME280;27061;41.648;24.568;2023-03-14T00:08:40;85872.59;;;2.66;51.38
41312;BME280;27061;41.648;24.568;2023-03-14T00:11:08;85882.78;;;2.62;51.94
41312;BME280;27061;41.648;24.568;2023-03-14T00:13:36;85870.31;;;2.48;52.25
41312;BME280;27061;41.648;24.568;2023-03-14T00:16:09;85877.94;;;2.58;52.02
41312;BME280;27061;41.648;24.568;2023-03-14T00:18:38;85824.13;;;2.20;52.07
41312;BME280;27061;41.648;24.568;2023-03-14T00:21:06;85875.16;;;2.52;51.86
41312;BME280;27061;41.648;24.568;2023-03-14T00:23:35;85873.81;;;2.55;52.27
41312;BME280;27061;41.648;24.568;2023-03-14T00:26:08;85871.75;;;2.53;52.72
41312;BME280;27061;41.648;24.568;2023-03-14T00:28:36;85811.72;;;2.13;52.55
41312;BME280;27061;41.648;24.568;2023-03-14T00:31:04;85844.50;;;2.13;51.57
41312;BME280;27061;41.648;24.568;2023-03-14T00:33:33;85852.97;;;2.32;52.49
41312;BME280;27061;41.648;24.568;2023-03-14T00:36:05;85872.31;;;2.46;52.03
41312;BME280;27061;41.648;24.568;2023-03-14T00:38:33;85830.69;;;2.03;51.77
41312;BME280;27061;41.648;24.568;2023-03-14T00:41:08;85865.16;;;2.25;52.08
41312;BME280;27061;41.648;24.568;2023-03-14T00:43:36;85867.41;;;2.38;52.76
41312;BME280;27061;41.648;24.568;2023-03-14T00:46:03;85822.53;;;2.05;51.93
41312;BME280;27061;41.648;24.568;2023-03-14T00:48:31;85796.97;;;1.87;52.49
41312;BME280;27061;41.648;24.568;2023-03-14T00:51:01;85851.69;;;2.37;53.21
41312;BME280;27061;41.648;24.568;2023-03-14T00:53:28;85836.59;;;2.32;53.04
41312;BME280;27061;41.648;24.568;2023-03-14T00:55:55;85837.53;;;2.04;52.08
41312;BME280;27061;41.648;24.568;2023-03-14T00:58:22;85798.91;;;1.78;52.42
41312;BME280;27061;41.648;24.568;2023-03-14T01:00:49;85829.47;;;2.14;52.18
41312;BME280;27061;41.648;24.568;2023-03-14T01:03:16;85816.97;;;1.99;52.57
41312;BME280;27061;41.648;24.568;2023-03-14T01:05:43;85827.00;;;2.31;51.67
41312;BME280;27061;41.648;24.568;2023-03-14T01:08:10;85821.50;;;2.29;52.01
41312;BME280;27061;41.648;24.568;2023-03-14T01:10:40;85820.06;;;2.24;52.15
41312;BME280;27061;41.648;24.568;2023-03-14T01:13:08;85774.56;;;1.94;50.73
41312;BME280;27061;41.648;24.568;2023-03-14T01:15:36;85766.38;;;1.94;51.98
41312;BME280;27061;41.648;24.568;2023-03-14T01:18:04;85799.53;;;2.20;51.84
41312;BME280;27061;41.648;24.568;2023-03-14T01:20:31;85762.25;;;1.93;52.12
41312;BME280;27061;41.648;24.568;2023-03-14T01:22:58;85729.19;;;1.73;51.97
41312;BME280;27061;41.648;24.568;2023-03-14T01:25:25;85718.84;;;1.65;51.87
41312;BME280;27061;41.648;24.568;2023-03-14T01:27:54;85794.19;;;2.29;51.38
41312;BME280;27061;41.648;24.568;2023-03-14T01:30:21;85791.44;;;2.27;50.12
41312;BME280;27061;41.648;24.568;2023-03-14T01:32:48;85694.63;;;1.41;50.63
41312;BME280;27061;41.648;24.568;2023-03-14T01:35:16;85678.81;;;1.34;51.07
41312;BME280;27061;41.648;24.568;2023-03-14T01:37:43;85756.75;;;1.91;51.73
41312;BME280;27061;41.648;24.568;2023-03-14T01:40:15;85766.44;;;1.98;51.76
41312;BME280;27061;41.648;24.568;2023-03-14T01:42:57;85776.09;;;2.05;51.56
41312;BME280;27061;41.648;24.568;2023-03-14T01:51:06;85649.13;;;1.10;51.36
41312;BME280;27061;41.648;24.568;2023-03-14T01:53:35;85731.88;;;1.69;51.41
41312;BME280;27061;41.648;24.568;2023-03-14T01:56:03;85733.84;;;1.64;50.76
41312;BME280;27061;41.648;24.568;2023-03-14T01:58:32;85748.38;;;1.77;51.05
41312;BME280;27061;41.648;24.568;2023-03-14T02:01:02;85747.63;;;1.72;51.38
41312;BME280;27061;41.648;24.568;2023-03-14T02:03:33;85760.06;;;1.83;51.08
41312;BME280;27061;41.648;24.568;2023-03-14T02:06:06;85720.66;;;1.51;51.13
41312;BME280;27061;41.648;24.568;2023-03-14T02:08:37;85712.44;;;1.46;51.64
41312;BME280;27061;41.648;24.568;2023-03-14T02:11:12;85760.72;;;1.82;52.53
41312;BME280;27061;41.648;24.568;2023-03-14T02:14:07;85759.25;;;1.75;51.36
41312;BME280;27061;41.648;24.568;2023-03-14T02:17:07;85732.34;;;1.55;51.65
41312;BME280;27061;41.648;24.568;2023-03-14T02:22:54;85737.88;;;1.61;51.81
41312;BME280;27061;41.648;24.568;2023-03-14T02:25:43;85748.28;;;1.71;51.37
41312;BME280;27061;41.648;24.568;2023-03-14T02:28:12;85746.84;;;1.66;51.49
41312;BME280;27061;41.648;24.568;2023-03-14T02:30:40;85737.84;;;1.59;51.63
41312;BME280;27061;41.648;24.568;2023-03-14T02:33:10;85663.53;;;1.17;52.10
41312;BME280;27061;41.648;24.568;2023-03-14T02:35:58;85695.81;;;1.30;52.73
41312;BME280;27061;41.648;24.568;2023-03-14T02:41:15;85742.88;;;1.75;51.98
41312;BME280;27061;41.648;24.568;2023-03-14T02:43:49;85732.59;;;1.71;51.43
41312;BME280;27061;41.648;24.568;2023-03-14T02:46:18;85744.28;;;1.76;51.41
41312;BME280;27061;41.648;24.568;2023-03-14T02:48:50;85687.84;;;1.44;50.75
41312;BME280;27061;41.648;24.568;2023-03-14T02:51:19;85734.72;;;1.77;50.33
41312;BME280;27061;41.648;24.568;2023-03-14T02:53:47;85730.78;;;1.86;50.16
41312;BME280;27061;41.648;24.568;2023-03-14T02:56:14;85738.78;;;1.74;51.68
41312;BME280;27061;41.648;24.568;2023-03-14T02:58:41;85742.75;;;1.67;52.26
41312;BME280;27061;41.648;24.568;2023-03-14T03:01:24;85743.41;;;1.65;52.47
41312;BME280;27061;41.648;24.568;2023-03-14T03:03:51;85717.84;;;1.44;51.89
41312;BME280;27061;41.648;24.568;2023-03-14T03:06:19;85707.53;;;1.39;52.32
41312;BME280;27061;41.648;24.568;2023-03-14T03:08:46;85650.28;;;0.97;52.40
41312;BME280;27061;41.648;24.568;2023-03-14T03:11:13;85717.91;;;1.48;52.67
41312;BME280;27061;41.648;24.568;2023-03-14T03:13:40;85711.59;;;1.36;53.03
41312;BME280;27061;41.648;24.568;2023-03-14T03:16:08;85739.38;;;1.68;50.88
41312;BME280;27061;41.648;24.568;2023-03-14T03:18:35;85733.91;;;1.68;51.15
41312;BME280;27061;41.648;24.568;2023-03-14T03:21:03;85689.13;;;1.37;52.15
41312;BME280;27061;41.648;24.568;2023-03-14T03:23:31;85738.69;;;1.68;51.74
41312;BME280;27061;41.648;24.568;2023-03-14T03:25:58;85730.41;;;1.62;52.63
41312;BME280;27061;41.648;24.568;2023-03-14T03:28:25;85742.66;;;1.59;51.81
41312;BME280;27061;41.648;24.568;2023-03-14T03:30:53;85748.97;;;1.71;52.31
41312;BME280;27061;41.648;24.568;2023-03-14T03:33:20;85729.69;;;1.61;53.01
41312;BME280;27061;41.648;24.568;2023-03-14T03:35:50;85704.78;;;1.39;52.94
41312;BME280;27061;41.648;24.568;2023-03-14T03:38:23;85748.31;;;1.73;52.90
41312;BME280;27061;41.648;24.568;2023-03-14T03:40:52;85700.75;;;1.42;53.08
41312;BME280;27061;41.648;24.568;2023-03-14T03:43:23;85740.81;;;1.73;52.02
41312;BME280;27061;41.648;24.568;2023-03-14T03:45:50;85679.38;;;1.26;51.40
41312;BME280;27061;41.648;24.568;2023-03-14T03:48:18;85751.06;;;1.75;50.84
41312;BME280;27061;41.648;24.568;2023-03-14T03:50:46;85716.59;;;1.52;51.64
41312;BME280;27061;41.648;24.568;2023-03-14T03:53:17;85716.66;;;1.56;51.63
41312;BME280;27061;41.648;24.568;2023-03-14T03:56:01;85742.81;;;1.71;51.73
41312;BME280;27061;41.648;24.568;2023-03-14T03:58:28;85748.56;;;1.91;50.86
41312;BME280;27061;41.648;24.568;2023-03-14T04:00:55;85734.03;;;1.76;50.43
41312;BME280;27061;41.648;24.568;2023-03-14T04:03:23;85736.84;;;1.82;51.18
41312;BME280;27061;41.648;24.568;2023-03-14T04:06:09;85739.53;;;1.78;51.49
41312;BME280;27061;41.648;24.568;2023-03-14T04:08:39;85706.28;;;1.46;52.10
41312;BME280;27061;41.648;24.568;2023-03-14T04:11:10;85748.38;;;1.77;51.41
41312;BME280;27061;41.648;24.568;2023-03-14T04:14:07;85751.09;;;1.77;51.69
41312;BME280;27061;41.648;24.568;2023-03-14T04:16:35;85756.56;;;1.77;51.65
41312;BME280;27061;41.648;24.568;2023-03-14T04:19:09;85708.88;;;1.38;50.68
41312;BME280;27061;41.648;24.568;2023-03-14T04:21:36;85753.81;;;1.75;50.41
41312;BME280;27061;41.648;24.568;2023-03-14T04:24:03;85719.97;;;1.50;49.88
41312;BME280;27061;41.648;24.568;2023-03-14T04:26:33;85755.13;;;1.72;49.26
41312;BME280;27061;41.648;24.568;2023-03-14T04:29:00;85753.81;;;1.75;50.40
41312;BME280;27061;41.648;24.568;2023-03-14T04:31:27;85749.66;;;1.72;50.57
41312;BME280;27061;41.648;24.568;2023-03-14T04:33:55;85741.97;;;1.58;51.02
41312;BME280;27061;41.648;24.568;2023-03-14T04:36:29;85697.22;;;1.33;51.76
41312;BME280;27061;41.648;24.568;2023-03-14T04:39:01;85671.00;;;1.14;49.81
41312;BME280;27061;41.648;24.568;2023-03-14T04:41:29;85749.13;;;1.81;49.67
41312;BME280;27061;41.648;24.568;2023-03-14T04:43:57;85751.16;;;1.81;50.15
41312;BME280;27061;41.648;24.568;2023-03-14T04:46:24;85745.69;;;1.81;50.11
41312;BME280;27061;41.648;24.568;2023-03-14T04:48:51;85731.91;;;1.71;50.28
41312;BME280;27061;41.648;24.568;2023-03-14T04:51:19;85698.81;;;1.48;50.29
41312;BME280;27061;41.648;24.568;2023-03-14T04:53:46;85731.38;;;1.82;49.32
41312;BME280;27061;41.648;24.568;2023-03-14T04:56:13;85740.13;;;1.73;50.50
41312;BME280;27061;41.648;24.568;2023-03-14T04:58:42;85704.25;;;1.46;51.15
41312;BME280;27061;41.648;24.568;2023-03-14T05:01:13;85723.53;;;1.59;52.25
41312;BME280;27061;41.648;24.568;2023-03-14T05:03:46;85734.47;;;1.61;53.09
41312;BME280;27061;41.648;24.568;2023-03-14T05:06:33;85713.13;;;1.49;52.92
41312;BME280;27061;41.648;24.568;2023-03-14T05:09:14;85732.47;;;1.63;53.89
41312;BME280;27061;41.648;24.568;2023-03-14T05:11:59;85744.19;;;1.72;53.55
41312;BME280;27061;41.648;24.568;2023-03-14T05:14:41;85748.31;;;1.73;53.67
41312;BME280;27061;41.648;24.568;2023-03-14T05:17:37;85741.38;;;1.66;51.50
41312;BME280;27061;41.648;24.568;2023-03-14T05:20:10;85683.75;;;1.43;52.47
41312;BME280;27061;41.648;24.568;2023-03-14T05:23:04;85722.25;;;1.64;52.72
41312;BME280;27061;41.648;24.568;2023-03-14T05:25:50;85741.56;;;1.78;52.79
41312;BME280;27061;41.648;24.568;2023-03-14T05:28:23;85723.75;;;1.73;53.51
41312;BME280;27061;41.648;24.568;2023-03-14T05:31:07;85701.03;;;1.60;54.84
41312;BME280;27061;41.648;24.568;2023-03-14T05:33:41;85725.19;;;1.78;55.87
41312;BME280;27061;41.648;24.568;2023-03-14T05:36:14;85696.34;;;1.65;55.88
41312;BME280;27061;41.648;24.568;2023-03-14T05:39:09;85737.97;;;2.11;57.57
41312;BME280;27061;41.648;24.568;2023-03-14T05:41:45;85711.91;;;2.04;57.41
41312;BME280;27061;41.648;24.568;2023-03-14T05:44:25;85723.06;;;2.20;56.93
41312;BME280;27061;41.648;24.568;2023-03-14T05:47:11;85730.16;;;2.40;55.73
41312;BME280;27061;41.648;24.568;2023-03-14T05:49:41;85723.41;;;2.47;56.88
41312;BME280;27061;41.648;24.568;2023-03-14T05:52:19;85717.97;;;2.49;58.08
41312;BME280;27061;41.648;24.568;2023-03-14T05:55:04;85718.22;;;2.69;59.42
41312;BME280;27061;41.648;24.568;2023-03-14T05:57:50;85723.03;;;2.73;59.54
41312;BME280;27061;41.648;24.568;2023-03-14T06:00:37;85683.31;;;2.64;58.63
41312;BME280;27061;41.648;24.568;2023-03-14T06:03:20;85723.38;;;3.03;58.23
41312;BME280;27061;41.648;24.568;2023-03-14T06:05:51;85692.50;;;2.92;58.28
41312;BME280;27061;41.648;24.568;2023-03-14T06:08:20;85705.63;;;3.06;57.16
41312;BME280;27061;41.648;24.568;2023-03-14T06:10:47;85689.91;;;3.05;57.25
41312;BME280;27061;41.648;24.568;2023-03-14T06:13:14;85711.41;;;3.37;58.44
41312;BME280;27061;41.648;24.568;2023-03-14T06:15:43;85689.47;;;3.33;58.70
41312;BME280;27061;41.648;24.568;2023-03-14T06:18:11;85679.28;;;3.41;58.99
41312;BME280;27061;41.648;24.568;2023-03-14T06:20:39;85676.66;;;3.55;59.55
41312;BME280;27061;41.648;24.568;2023-03-14T06:23:13;85702.19;;;3.82;58.61
41312;BME280;27061;41.648;24.568;2023-03-14T06:25:40;85674.81;;;3.80;59.02
41312;BME280;27061;41.648;24.568;2023-03-14T06:28:07;85701.81;;;4.22;56.92
41312;BME280;27061;41.648;24.568;2023-03-14T06:30:35;85688.13;;;4.22;54.16
41312;BME280;27061;41.648;24.568;2023-03-14T06:33:02;85674.38;;;4.18;55.88
41312;BME280;27061;41.648;24.568;2023-03-14T06:35:30;85678.56;;;4.29;55.39
41312;BME280;27061;41.648;24.568;2023-03-14T06:37:57;85701.31;;;4.54;55.19
41312;BME280;27061;41.648;24.568;2023-03-14T06:40:24;85674.59;;;4.59;45.73
41312;BME280;27061;41.648;24.568;2023-03-14T06:43:17;85691.13;;;4.79;52.00
41312;BME280;27061;41.648;24.568;2023-03-14T06:45:46;85688.44;;;4.91;49.25
41312;BME280;27061;41.648;24.568;2023-03-14T06:48:13;85702.22;;;5.09;49.31
41312;BME280;27061;41.648;24.568;2023-03-14T06:50:51;85700.84;;;5.12;50.24
41312;BME280;27061;41.648;24.568;2023-03-14T06:53:18;85650.03;;;4.91;50.49
41312;BME280;27061;41.648;24.568;2023-03-14T06:55:45;85703.69;;;5.41;50.08
41312;BME280;27061;41.648;24.568;2023-03-14T06:58:14;85667.97;;;5.23;46.92
41312;BME280;27061;41.648;24.568;2023-03-14T07:00:44;85658.38;;;5.28;46.71
41312;BME280;27061;41.648;24.568;2023-03-14T07:03:18;85696.88;;;5.68;45.93
41312;BME280;27061;41.648;24.568;2023-03-14T07:05:48;85676.94;;;5.64;42.26
41312;BME280;27061;41.648;24.568;2023-03-14T07:08:18;85666.66;;;5.62;41.54
41312;BME280;27061;41.648;24.568;2023-03-14T07:10:45;85659.09;;;5.63;44.36
41312;BME280;27061;41.648;24.568;2023-03-14T07:13:12;85656.38;;;5.71;46.24
41312;BME280;27061;41.648;24.568;2023-03-14T07:15:50;85692.81;;;6.10;46.20
41312;BME280;27061;41.648;24.568;2023-03-14T07:18:17;85676.31;;;6.14;44.76
41312;BME280;27061;41.648;24.568;2023-03-14T07:20:45;85690.03;;;6.30;45.04
41312;BME280;27061;41.648;24.568;2023-03-14T07:23:13;85676.31;;;6.22;46.34
41312;BME280;27061;41.648;24.568;2023-03-14T07:25:47;85672.19;;;6.35;48.26
41312;BME280;27061;41.648;24.568;2023-03-14T07:28:16;85622.03;;;6.08;46.98
41312;BME280;27061;41.648;24.568;2023-03-14T07:30:46;85681.78;;;6.50;48.00
41312;BME280;27061;41.648;24.568;2023-03-14T07:33:19;85685.88;;;6.66;48.96
41312;BME280;27061;41.648;24.568;2023-03-14T07:35:48;85679.69;;;6.67;48.53
41312;BME280;27061;41.648;24.568;2023-03-14T07:38:15;85660.44;;;6.67;46.50
41312;BME280;27061;41.648;24.568;2023-03-14T07:41:09;85663.78;;;6.90;46.75
41312;BME280;27061;41.648;24.568;2023-03-14T07:43:46;85658.94;;;7.03;46.44
41312;BME280;27061;41.648;24.568;2023-03-14T07:46:13;85678.81;;;7.23;46.48
41312;BME280;27061;41.648;24.568;2023-03-14T07:48:41;85671.19;;;7.34;45.88
41312;BME280;27061;41.648;24.568;2023-03-14T07:51:08;85658.09;;;7.37;45.58
41312;BME280;27061;41.648;24.568;2023-03-14T07:53:35;85651.16;;;7.48;43.99
41312;BME280;27061;41.648;24.568;2023-03-14T07:56:02;85646.28;;;7.56;45.47
41312;BME280;27061;41.648;24.568;2023-03-14T07:58:29;85659.22;;;7.80;44.81
41312;BME280;27061;41.648;24.568;2023-03-14T08:00:58;85674.91;;;8.04;44.25
41312;BME280;27061;41.648;24.568;2023-03-14T08:03:25;85671.34;;;8.18;44.81
41312;BME280;27061;41.648;24.568;2023-03-14T08:05:53;85661.66;;;8.25;41.25
41312;BME280;27061;41.648;24.568;2023-03-14T08:08:20;85661.63;;;8.35;43.15
41312;BME280;27061;41.648;24.568;2023-03-14T08:10:47;85664.22;;;8.53;43.51
41312;BME280;27061;41.648;24.568;2023-03-14T08:13:14;85631.22;;;8.41;42.88
41312;BME280;27061;41.648;24.568;2023-03-14T08:15:41;85666.69;;;8.84;41.98
41312;BME280;27061;41.648;24.568;2023-03-14T08:18:08;85604.91;;;8.50;42.54
41312;BME280;27061;41.648;24.568;2023-03-14T08:20:35;85634.97;;;8.80;43.78
41312;BME280;27061;41.648;24.568;2023-03-14T08:23:03;85628.66;;;8.90;43.72
41312;BME280;27061;41.648;24.568;2023-03-14T08:25:30;85676.53;;;9.32;41.86
41312;BME280;27061;41.648;24.568;2023-03-14T08:28:23;85668.72;;;9.48;42.87
41312;BME280;27061;41.648;24.568;2023-03-14T08:30:50;85663.06;;;9.61;42.17
41312;BME280;27061;41.648;24.568;2023-03-14T08:33:20;85613.56;;;9.42;42.82
41312;BME280;27061;41.648;24.568;2023-03-14T08:35:47;85601.09;;;9.43;41.54
41312;BME280;27061;41.648;24.568;2023-03-14T08:38:14;85672.19;;;10.02;40.43
41312;BME280;27061;41.648;24.568;2023-03-14T08:40:41;85663.69;;;10.16;41.11
41312;BME280;27061;41.648;24.568;2023-03-14T08:43:08;85648.44;;;10.21;40.68
41312;BME280;27061;41.648;24.568;2023-03-14T08:45:35;85598.88;;;10.05;41.45
41312;BME280;27061;41.648;24.568;2023-03-14T08:48:02;85658.88;;;10.60;41.56
41312;BME280;27061;41.648;24.568;2023-03-14T08:50:29;85642.22;;;10.64;40.13
41312;BME280;27061;41.648;24.568;2023-03-14T08:52:56;85593.41;;;10.46;39.62
41312;BME280;27061;41.648;24.568;2023-03-14T08:55:27;85625.91;;;10.87;38.78
41312;BME280;27061;41.648;24.568;2023-03-14T08:57:54;85641.47;;;11.09;39.21
41312;BME280;27061;41.648;24.568;2023-03-14T09:00:22;85593.28;;;10.91;39.76
41312;BME280;27061;41.648;24.568;2023-03-14T09:02:50;85649.09;;;11.45;41.15
41312;BME280;27061;41.648;24.568;2023-03-14T09:05:17;85636.38;;;11.58;39.43
41312;BME280;27061;41.648;24.568;2023-03-14T09:07:44;85556.81;;;11.16;39.36
41312;BME280;27061;41.648;24.568;2023-03-14T09:10:11;85615.34;;;11.69;37.77
41312;BME280;27061;41.648;24.568;2023-03-14T09:12:38;85574.13;;;11.51;38.09
41312;BME280;27061;41.648;24.568;2023-03-14T09:15:06;85608.53;;;11.97;31.62
41312;BME280;27061;41.648;24.568;2023-03-14T09:17:33;85570.81;;;11.78;36.04
41312;BME280;27061;41.648;24.568;2023-03-14T09:20:02;85618.31;;;12.27;36.67
41312;BME280;27061;41.648;24.568;2023-03-14T09:22:33;85581.31;;;12.06;35.96
41312;BME280;27061;41.648;24.568;2023-03-14T09:25:03;85595.31;;;12.31;36.14
41312;BME280;27061;41.648;24.568;2023-03-14T09:27:31;85614.88;;;12.56;34.31
41312;BME280;27061;41.648;24.568;2023-03-14T09:29:58;85615.84;;;12.73;35.67
41312;BME280;27061;41.648;24.568;2023-03-14T09:32:25;85586.91;;;12.64;36.57
41312;BME280;27061;41.648;24.568;2023-03-14T09:34:52;85557.25;;;12.56;36.72
41312;BME280;27061;41.648;24.568;2023-03-14T09:37:19;85588.16;;;12.98;37.51
41312;BME280;27061;41.648;24.568;2023-03-14T09:40:14;85593.91;;;13.18;35.10
41312;BME280;27061;41.648;24.568;2023-03-14T09:42:42;85556.81;;;13.01;36.26
41312;BME280;27061;41.648;24.568;2023-03-14T09:45:26;85586.44;;;13.38;35.73
41312;BME280;27061;41.648;24.568;2023-03-14T09:47:55;85566.97;;;13.38;35.00
41312;BME280;27061;41.648;24.568;2023-03-14T09:50:31;85554.38;;;13.41;34.33
41312;BME280;27061;41.648;24.568;2023-03-14T09:53:04;85560.06;;;13.62;34.33
41312;BME280;27061;41.648;24.568;2023-03-14T09:55:36;85587.53;;;13.99;33.47
41312;BME280;27061;41.648;24.568;2023-03-14T09:58:10;85554.25;;;13.95;31.51
41312;BME280;27061;41.648;24.568;2023-03-14T10:00:39;85577.31;;;14.16;34.27
41312;BME280;27061;41.648;24.568;2023-03-14T10:05:41;85582.19;;;14.15;30.87
41312;BME280;27061;41.648;24.568;2023-03-14T10:08:12;85535.66;;;13.64;25.49
41312;BME280;27061;41.648;24.568;2023-03-14T10:10:39;85566.47;;;14.06;28.16
41312;BME280;27061;41.648;24.568;2023-03-14T10:15:37;85567.78;;;14.32;27.54
41312;BME280;27061;41.648;24.568;2023-03-14T10:18:10;85542.97;;;14.23;31.03
41312;BME280;27061;41.648;24.568;2023-03-14T10:20:47;85506.47;;;14.11;30.83
41312;BME280;27061;41.648;24.568;2023-03-14T10:25:44;85394.94;;;13.50;30.10
41312;BME280;27061;41.648;24.568;2023-03-14T10:28:39;85543.59;;;14.72;28.68
41312;BME280;27061;41.648;24.568;2023-03-14T10:31:10;85541.84;;;14.83;29.95
41312;BME280;27061;41.648;24.568;2023-03-14T10:33:39;85517.16;;;14.71;29.91
41312;BME280;27061;41.648;24.568;2023-03-14T10:38:47;85418.44;;;14.22;27.08
41312;BME280;27061;41.648;24.568;2023-03-14T10:41:24;85521.16;;;15.17;28.44
41312;BME280;27061;41.648;24.568;2023-03-14T10:43:54;85511.38;;;15.18;28.02
41312;BME280;27061;41.648;24.568;2023-03-14T10:46:24;85481.47;;;14.96;27.66
41312;BME280;27061;41.648;24.568;2023-03-14T10:49:25;85508.16;;;15.30;27.69
41312;BME280;27061;41.648;24.568;2023-03-14T10:51:54;85389.06;;;14.48;28.99
41312;BME280;27061;41.648;24.568;2023-03-14T10:54:22;85497.72;;;15.50;31.33
41312;BME280;27061;41.648;24.568;2023-03-14T10:57:00;85493.25;;;15.59;30.21
41312;BME280;27061;41.648;24.568;2023-03-14T10:59:36;85439.13;;;15.31;29.90
41312;BME280;27061;41.648;24.568;2023-03-14T11:07:43;85438.75;;;15.41;23.35
41312;BME280;27061;41.648;24.568;2023-03-14T11:10:31;85471.84;;;15.72;26.71
41312;BME280;27061;41.648;24.568;2023-03-14T11:21:29;85455.19;;;15.89;27.87
41312;BME280;27061;41.648;24.568;2023-03-14T11:24:26;85446.56;;;15.95;28.57
41312;BME280;27061;41.648;24.568;2023-03-14T11:29:39;85435.25;;;16.18;28.56
41312;BME280;27061;41.648;24.568;2023-03-14T11:32:19;85388.72;;;15.93;29.94
41312;BME280;27061;41.648;24.568;2023-03-14T11:34:53;85435.34;;;16.32;26.65
41312;BME280;27061;41.648;24.568;2023-03-14T11:37:34;85409.94;;;16.22;24.93
41312;BME280;27061;41.648;24.568;2023-03-14T11:40:23;85426.28;;;16.32;25.90
41312;BME280;27061;41.648;24.568;2023-03-14T11:43:04;85419.94;;;16.33;28.91
41312;BME280;27061;41.648;24.568;2023-03-14T11:45:35;85419.78;;;16.37;28.79
41312;BME280;27061;41.648;24.568;2023-03-14T11:50:49;85387.44;;;16.26;30.17
41312;BME280;27061;41.648;24.568;2023-03-14T11:53:30;85386.94;;;16.38;28.63
41312;BME280;27061;41.648;24.568;2023-03-14T11:56:00;85389.25;;;16.50;27.03
41312;BME280;27061;41.648;24.568;2023-03-14T11:58:34;85407.13;;;16.57;27.96
41312;BME280;27061;41.648;24.568;2023-03-14T12:01:06;85397.31;;;16.58;26.96
41312;BME280;27061;41.648;24.568;2023-03-14T12:04:07;85350.13;;;16.33;27.32
41312;BME280;27061;41.648;24.568;2023-03-14T12:06:38;85370.47;;;16.65;29.51
41312;BME280;27061;41.648;24.568;2023-03-14T12:09:12;85183.41;;;15.27;29.58
41312;BME280;27061;41.648;24.568;2023-03-14T12:12:06;85268.25;;;16.03;26.82
41312;BME280;27061;41.648;24.568;2023-03-14T12:14:45;85319.06;;;16.58;27.80
41312;BME280;27061;41.648;24.568;2023-03-14T12:17:20;85333.72;;;16.75;27.97
41312;BME280;27061;41.648;24.568;2023-03-14T12:20:01;85317.06;;;16.73;29.75
41312;BME280;27061;41.648;24.568;2023-03-14T12:22:36;85361.47;;;17.13;27.97
41312;BME280;27061;41.648;24.568;2023-03-14T12:25:26;85296.38;;;16.66;28.96
41312;BME280;27061;41.648;24.568;2023-03-14T12:35:46;85195.50;;;16.41;29.97
41312;BME280;27061;41.648;24.568;2023-03-14T12:43:35;85338.66;;;17.54;27.32
41312;BME280;27061;41.648;24.568;2023-03-14T12:46:24;85301.69;;;17.37;28.02
41312;BME280;27061;41.648;24.568;2023-03-14T12:51:36;85327.72;;;17.17;26.66
41312;BME280;27061;41.648;24.568;2023-03-14T12:59:55;85314.75;;;16.95;28.69
41312;BME280;27061;41.648;24.568;2023-03-14T13:02:25;85320.63;;;17.20;26.50
41312;BME280;27061;41.648;24.568;2023-03-14T13:05:14;85308.88;;;17.32;27.31
41312;BME280;27061;41.648;24.568;2023-03-14T13:15:27;85251.97;;;16.92;26.31
41312;BME280;27061;41.648;24.568;2023-03-14T13:17:59;85295.13;;;17.11;27.28
41312;BME280;27061;41.648;24.568;2023-03-14T13:20:37;85297.78;;;16.99;28.85
41312;BME280;27061;41.648;24.568;2023-03-14T13:23:18;85240.41;;;16.35;27.43
41312;BME280;27061;41.648;24.568;2023-03-14T13:25:46;85280.78;;;16.55;27.75
41312;BME280;27061;41.648;24.568;2023-03-14T13:28:15;85303.16;;;16.71;29.15
41312;BME280;27061;41.648;24.568;2023-03-14T13:30:45;85235.47;;;16.21;31.29
41312;BME280;27061;41.648;24.568;2023-03-14T13:33:19;85227.31;;;16.15;31.00
41312;BME280;27061;41.648;24.568;2023-03-14T13:35:53;85244.41;;;16.40;29.49
41312;BME280;27061;41.648;24.568;2023-03-14T13:38:24;85298.66;;;16.78;28.97
41312;BME280;27061;41.648;24.568;2023-03-14T13:40:56;85293.06;;;16.78;30.56
41312;BME280;27061;41.648;24.568;2023-03-14T13:43:31;85288.91;;;16.77;27.94
41312;BME280;27061;41.648;24.568;2023-03-14T13:46:16;85233.06;;;16.27;30.40
41312;BME280;27061;41.648;24.568;2023-03-14T13:48:58;85279.78;;;16.79;28.56
41312;BME280;27061;41.648;24.568;2023-03-14T13:51:30;85232.56;;;15.89;26.69
41312;BME280;27061;41.648;24.568;2023-03-14T13:54:00;85279.94;;;16.58;28.22
41312;BME280;27061;41.648;24.568;2023-03-14T13:56:29;85272.06;;;16.46;29.90
41312;BME280;27061;41.648;24.568;2023-03-14T13:58:57;85252.88;;;16.38;29.33
41312;BME280;27061;41.648;24.568;2023-03-14T14:01:28;85202.47;;;16.08;28.93
41312;BME280;27061;41.648;24.568;2023-03-14T14:04:05;85265.41;;;16.72;29.77
41312;BME280;27061;41.648;24.568;2023-03-14T14:06:38;85243.22;;;16.68;27.36
41312;BME280;27061;41.648;24.568;2023-03-14T14:09:15;85226.22;;;16.41;28.16
41312;BME280;27061;41.648;24.568;2023-03-14T14:12:06;85260.72;;;16.83;26.58
41312;BME280;27061;41.648;24.568;2023-03-14T14:14:56;85238.00;;;16.75;26.04
41312;BME280;27061;41.648;24.568;2023-03-14T14:17:28;85219.84;;;16.42;28.84
41312;BME280;27061;41.648;24.568;2023-03-14T14:19:59;85176.06;;;16.05;29.98
41312;BME280;27061;41.648;24.568;2023-03-14T14:22:33;85201.44;;;16.16;28.60
41312;BME280;27061;41.648;24.568;2023-03-14T14:25:01;85241.00;;;16.54;28.28
41312;BME280;27061;41.648;24.568;2023-03-14T14:27:33;85193.97;;;16.10;28.67
41312;BME280;27061;41.648;24.568;2023-03-14T14:32:46;85180.44;;;16.00;27.48
41312;BME280;27061;41.648;24.568;2023-03-14T14:36:20;85220.50;;;16.43;28.70
41312;BME280;27061;41.648;24.568;2023-03-14T14:38:39;85230.09;;;16.48;27.51